sensor_id;sensor_type;location;lat;lon;timestamp;P1;durP1;ratioP1;P2;durP2;ratioP2
40701;SDS011;26387;50.114;8.662;2022-10-17T00:00:41;22.75;;;9.07;;
40701;SDS011;26387;50.114;8.662;2022-10-17T00:03:07;13.07;;;8.27;;
40701;SDS011;26387;50.114;8.662;2022-10-17T00:05:33;15.43;;;9.13;;
40701;SDS011;26387;50.114;8.662;2022-10-17T00:07:58;14.90;;;8.50;;
40701;SDS011;26387;50.114;8.662;2022-10-17T00:10:24;13.23;;;8.50;;
40701;SDS011;26387;50.114;8.662;2022-10-17T00:12:50;18.83;;;8.85;;
40701;SDS011;26387;50.114;8.662;2022-10-17T00:15:16;12.80;;;8.85;;
40701;SDS011;26387;50.114;8.662;2022-10-17T00:17:43;14.70;;;8.63;;
40701;SDS011;26387;50.114;8.662;2022-10-17T00:20:09;17.10;;;9.05;;
40701;SDS011;26387;50.114;8.662;2022-10-17T00:22:35;14.45;;;8.60;;
40701;SDS011;26387;50.114;8.662;2022-10-17T00:25:01;15.00;;;8.68;;
40701;SDS011;26387;50.114;8.662;2022-10-17T00:27:27;11.45;;;8.05;;
40701;SDS011;26387;50.114;8.662;2022-10-17T00:29:52;12.70;;;7.72;;
40701;SDS011;26387;50.114;8.662;2022-10-17T00:32:18;11.52;;;7.78;;
40701;SDS011;26387;50.114;8.662;2022-10-17T00:34:44;13.38;;;7.60;;
40701;SDS011;26387;50.114;8.662;2022-10-17T00:37:10;14.10;;;7.47;;
40701;SDS011;26387;50.114;8.662;2022-10-17T00:39:35;12.73;;;7.57;;
40701;SDS011;26387;50.114;8.662;2022-10-17T00:42:01;11.35;;;7.75;;
40701;SDS011;26387;50.114;8.662;2022-10-17T00:46:56;16.67;;;7.28;;
40701;SDS011;26387;50.114;8.662;2022-10-17T00:49:27;10.13;;;7.60;;
40701;SDS011;26387;50.114;8.662;2022-10-17T00:52:15;10.93;;;7.35;;
40701;SDS011;26387;50.114;8.662;2022-10-17T00:54:45;11.77;;;7.30;;
40701;SDS011;26387;50.114;8.662;2022-10-17T00:57:16;12.20;;;7.35;;
40701;SDS011;26387;50.114;8.662;2022-10-17T00:59:42;15.75;;;7.53;;
40701;SDS011;26387;50.114;8.662;2022-10-17T01:02:14;12.98;;;7.55;;
40701;SDS011;26387;50.114;8.662;2022-10-17T01:04:41;14.73;;;6.90;;
40701;SDS011;26387;50.114;8.662;2022-10-17T01:07:10;11.20;;;7.07;;
40701;SDS011;26387;50.114;8.662;2022-10-17T01:09:36;15.27;;;8.35;;
40701;SDS011;26387;50.114;8.662;2022-10-17T01:14:49;11.93;;;7.80;;
40701;SDS011;26387;50.114;8.662;2022-10-17T01:23:29;11.90;;;7.25;;
40701;SDS011;26387;50.114;8.662;2022-10-17T01:29:00;10.35;;;7.07;;
40701;SDS011;26387;50.114;8.662;2022-10-17T01:31:36;13.27;;;7.95;;
40701;SDS011;26387;50.114;8.662;2022-10-17T01:34:09;12.52;;;7.93;;
40701;SDS011;26387;50.114;8.662;2022-10-17T01:39:22;13.90;;;7.82;;
40701;SDS011;26387;50.114;8.662;2022-10-17T01:42:07;14.65;;;7.53;;
40701;SDS011;26387;50.114;8.662;2022-10-17T01:44:49;12.05;;;7.82;;
40701;SDS011;26387;50.114;8.662;2022-10-17T01:47:36;15.75;;;7.60;;
40701;SDS011;26387;50.114;8.662;2022-10-17T01:50:05;13.85;;;7.72;;
40701;SDS011;26387;50.114;8.662;2022-10-17T01:52:49;13.27;;;7.67;;
40701;SDS011;26387;50.114;8.662;2022-10-17T01:55:20;13.10;;;7.28;;
40701;SDS011;26387;50.114;8.662;2022-10-17T01:57:56;11.48;;;7.60;;
40701;SDS011;26387;50.114;8.662;2022-10-17T02:00:28;13.20;;;7.50;;
40701;SDS011;26387;50.114;8.662;2022-10-17T02:02:57;9.95;;;6.88;;
40701;SDS011;26387;50.114;8.662;2022-10-17T02:05:28;13.40;;;7.53;;
40701;SDS011;26387;50.114;8.662;2022-10-17T02:07:57;11.98;;;7.22;;
40701;SDS011;26387;50.114;8.662;2022-10-17T02:10:30;16.00;;;7.45;;
40701;SDS011;26387;50.114;8.662;2022-10-17T02:13:18;10.73;;;7.45;;
40701;SDS011;26387;50.114;8.662;2022-10-17T02:27:33;14.25;;;7.90;;
40701;SDS011;26387;50.114;8.662;2022-10-17T02:35:14;13.65;;;7.45;;
40701;SDS011;26387;50.114;8.662;2022-10-17T02:37:40;11.05;;;6.68;;
40701;SDS011;26387;50.114;8.662;2022-10-17T02:40:09;15.43;;;7.13;;
40701;SDS011;26387;50.114;8.662;2022-10-17T02:42:38;12.40;;;7.30;;
40701;SDS011;26387;50.114;8.662;2022-10-17T02:45:07;11.93;;;7.18;;
40701;SDS011;26387;50.114;8.662;2022-10-17T02:47:35;13.75;;;7.65;;
40701;SDS011;26387;50.114;8.662;2022-10-17T02:50:14;10.02;;;7.60;;
40701;SDS011;26387;50.114;8.662;2022-10-17T02:53:13;13.00;;;7.55;;
40701;SDS011;26387;50.114;8.662;2022-10-17T02:55:39;9.60;;;6.40;;
40701;SDS011;26387;50.114;8.662;2022-10-17T02:58:17;16.33;;;7.15;;
40701;SDS011;26387;50.114;8.662;2022-10-17T03:00:49;11.90;;;6.65;;
40701;SDS011;26387;50.114;8.662;2022-10-17T03:03:24;11.05;;;7.07;;
40701;SDS011;26387;50.114;8.662;2022-10-17T03:05:51;11.63;;;7.00;;
40701;SDS011;26387;50.114;8.662;2022-10-17T03:08:18;11.05;;;6.40;;
40701;SDS011;26387;50.114;8.662;2022-10-17T03:10:44;8.88;;;6.85;;
40701;SDS011;26387;50.114;8.662;2022-10-17T03:13:10;10.93;;;6.90;;
40701;SDS011;26387;50.114;8.662;2022-10-17T03:15:35;15.63;;;7.55;;
40701;SDS011;26387;50.114;8.662;2022-10-17T03:18:01;11.07;;;7.25;;
40701;SDS011;26387;50.114;8.662;2022-10-17T03:20:27;11.70;;;7.18;;
40701;SDS011;26387;50.114;8.662;2022-10-17T03:22:52;13.77;;;7.32;;
40701;SDS011;26387;50.114;8.662;2022-10-17T03:25:18;12.95;;;7.00;;
40701;SDS011;26387;50.114;8.662;2022-10-17T03:27:44;16.20;;;6.97;;
40701;SDS011;26387;50.114;8.662;2022-10-17T03:30:09;14.77;;;6.72;;
40701;SDS011;26387;50.114;8.662;2022-10-17T03:32:35;13.45;;;6.97;;
40701;SDS011;26387;50.114;8.662;2022-10-17T03:35:01;14.15;;;6.93;;
40701;SDS011;26387;50.114;8.662;2022-10-17T03:37:27;13.38;;;7.05;;
40701;SDS011;26387;50.114;8.662;2022-10-17T03:39:52;11.57;;;6.45;;
40701;SDS011;26387;50.114;8.662;2022-10-17T03:42:18;13.73;;;7.15;;
40701;SDS011;26387;50.114;8.662;2022-10-17T03:44:43;13.15;;;7.30;;
40701;SDS011;26387;50.114;8.662;2022-10-17T03:47:09;14.80;;;7.07;;
40701;SDS011;26387;50.114;8.662;2022-10-17T03:49:35;10.75;;;6.15;;
40701;SDS011;26387;50.114;8.662;2022-10-17T03:52:00;13.95;;;7.10;;
40701;SDS011;26387;50.114;8.662;2022-10-17T03:54:26;11.68;;;6.38;;
40701;SDS011;26387;50.114;8.662;2022-10-17T03:56:52;10.73;;;6.47;;
40701;SDS011;26387;50.114;8.662;2022-10-17T03:59:17;12.45;;;6.80;;
40701;SDS011;26387;50.114;8.662;2022-10-17T04:01:43;15.60;;;6.75;;
40701;SDS011;26387;50.114;8.662;2022-10-17T04:04:09;13.95;;;6.80;;
40701;SDS011;26387;50.114;8.662;2022-10-17T04:06:35;10.38;;;6.65;;
40701;SDS011;26387;50.114;8.662;2022-10-17T04:09:01;12.43;;;6.57;;
40701;SDS011;26387;50.114;8.662;2022-10-17T04:11:28;12.82;;;6.88;;
40701;SDS011;26387;50.114;8.662;2022-10-17T04:13:54;9.45;;;6.40;;
40701;SDS011;26387;50.114;8.662;2022-10-17T04:16:22;15.35;;;6.72;;
40701;SDS011;26387;50.114;8.662;2022-10-17T04:18:51;9.45;;;6.72;;
40701;SDS011;26387;50.114;8.662;2022-10-17T04:21:19;10.98;;;6.78;;
40701;SDS011;26387;50.114;8.662;2022-10-17T04:23:45;11.98;;;6.90;;
40701;SDS011;26387;50.114;8.662;2022-10-17T04:26:10;12.63;;;7.30;;
40701;SDS011;26387;50.114;8.662;2022-10-17T04:28:36;9.80;;;6.38;;
40701;SDS011;26387;50.114;8.662;2022-10-17T04:31:05;12.98;;;7.32;;
40701;SDS011;26387;50.114;8.662;2022-10-17T04:33:33;15.77;;;7.32;;
40701;SDS011;26387;50.114;8.662;2022-10-17T04:36:00;9.80;;;6.78;;
40701;SDS011;26387;50.114;8.662;2022-10-17T04:38:28;13.07;;;6.93;;
40701;SDS011;26387;50.114;8.662;2022-10-17T04:41:00;12.95;;;7.32;;
40701;SDS011;26387;50.114;8.662;2022-10-17T04:43:34;13.20;;;7.05;;
40701;SDS011;26387;50.114;8.662;2022-10-17T04:46:02;12.88;;;6.70;;
40701;SDS011;26387;50.114;8.662;2022-10-17T04:48:29;11.30;;;6.28;;
40701;SDS011;26387;50.114;8.662;2022-10-17T04:50:55;12.02;;;6.72;;
40701;SDS011;26387;50.114;8.662;2022-10-17T04:53:23;10.68;;;6.88;;
40701;SDS011;26387;50.114;8.662;2022-10-17T04:55:49;15.57;;;6.90;;
40701;SDS011;26387;50.114;8.662;2022-10-17T04:58:15;15.70;;;6.85;;
40701;SDS011;26387;50.114;8.662;2022-10-17T05:00:41;12.07;;;7.25;;
40701;SDS011;26387;50.114;8.662;2022-10-17T05:03:07;14.27;;;7.25;;
40701;SDS011;26387;50.114;8.662;2022-10-17T05:05:35;13.77;;;7.57;;
40701;SDS011;26387;50.114;8.662;2022-10-17T05:08:02;14.52;;;6.68;;
40701;SDS011;26387;50.114;8.662;2022-10-17T05:10:29;12.27;;;7.10;;
40701;SDS011;26387;50.114;8.662;2022-10-17T05:12:54;11.77;;;6.80;;
40701;SDS011;26387;50.114;8.662;2022-10-17T05:15:20;13.80;;;6.82;;
40701;SDS011;26387;50.114;8.662;2022-10-17T05:17:45;10.88;;;6.22;;
40701;SDS011;26387;50.114;8.662;2022-10-17T05:20:11;15.60;;;7.65;;
40701;SDS011;26387;50.114;8.662;2022-10-17T05:22:36;11.40;;;6.82;;
40701;SDS011;26387;50.114;8.662;2022-10-17T05:25:02;11.15;;;6.90;;
40701;SDS011;26387;50.114;8.662;2022-10-17T05:27:28;10.32;;;6.60;;
40701;SDS011;26387;50.114;8.662;2022-10-17T05:29:53;15.98;;;6.82;;
40701;SDS011;26387;50.114;8.662;2022-10-17T05:32:19;10.02;;;7.30;;
40701;SDS011;26387;50.114;8.662;2022-10-17T05:34:44;13.40;;;7.25;;
40701;SDS011;26387;50.114;8.662;2022-10-17T05:37:10;16.13;;;7.55;;
40701;SDS011;26387;50.114;8.662;2022-10-17T05:39:35;12.52;;;7.60;;
40701;SDS011;26387;50.114;8.662;2022-10-17T05:42:01;12.77;;;7.55;;
40701;SDS011;26387;50.114;8.662;2022-10-17T05:44:26;12.75;;;7.25;;
40701;SDS011;26387;50.114;8.662;2022-10-17T05:46:52;9.82;;;6.68;;
40701;SDS011;26387;50.114;8.662;2022-10-17T05:49:18;16.40;;;7.10;;
40701;SDS011;26387;50.114;8.662;2022-10-17T05:51:43;11.10;;;6.88;;
40701;SDS011;26387;50.114;8.662;2022-10-17T05:54:09;15.05;;;6.80;;
40701;SDS011;26387;50.114;8.662;2022-10-17T05:56:34;12.68;;;6.55;;
40701;SDS011;26387;50.114;8.662;2022-10-17T05:59:00;9.73;;;6.85;;
40701;SDS011;26387;50.114;8.662;2022-10-17T06:01:26;13.90;;;7.40;;
40701;SDS011;26387;50.114;8.662;2022-10-17T06:03:52;20.42;;;7.07;;
40701;SDS011;26387;50.114;8.662;2022-10-17T06:06:17;14.75;;;7.15;;
40701;SDS011;26387;50.114;8.662;2022-10-17T06:08:43;17.88;;;7.80;;
40701;SDS011;26387;50.114;8.662;2022-10-17T06:11:10;20.80;;;7.97;;
40701;SDS011;26387;50.114;8.662;2022-10-17T06:13:36;15.45;;;8.35;;
40701;SDS011;26387;50.114;8.662;2022-10-17T06:16:02;24.13;;;8.40;;
40701;SDS011;26387;50.114;8.662;2022-10-17T06:18:28;19.90;;;7.95;;
40701;SDS011;26387;50.114;8.662;2022-10-17T06:21:00;22.92;;;8.10;;
40701;SDS011;26387;50.114;8.662;2022-10-17T06:23:29;13.73;;;7.88;;
40701;SDS011;26387;50.114;8.662;2022-10-17T06:26:01;14.15;;;8.10;;
40701;SDS011;26387;50.114;8.662;2022-10-17T06:28:28;19.15;;;8.13;;
40701;SDS011;26387;50.114;8.662;2022-10-17T06:30:54;15.80;;;7.65;;
40701;SDS011;26387;50.114;8.662;2022-10-17T06:33:20;15.32;;;7.55;;
40701;SDS011;26387;50.114;8.662;2022-10-17T06:35:50;17.02;;;8.75;;
40701;SDS011;26387;50.114;8.662;2022-10-17T06:40:46;19.65;;;8.48;;
40701;SDS011;26387;50.114;8.662;2022-10-17T06:43:11;16.17;;;8.10;;
40701;SDS011;26387;50.114;8.662;2022-10-17T06:45:38;24.23;;;9.27;;
40701;SDS011;26387;50.114;8.662;2022-10-17T06:48:03;28.13;;;9.90;;
40701;SDS011;26387;50.114;8.662;2022-10-17T06:50:29;25.60;;;9.20;;
40701;SDS011;26387;50.114;8.662;2022-10-17T06:52:55;23.50;;;9.07;;
40701;SDS011;26387;50.114;8.662;2022-10-17T06:55:21;26.58;;;8.73;;
40701;SDS011;26387;50.114;8.662;2022-10-17T06:57:46;18.67;;;8.30;;
40701;SDS011;26387;50.114;8.662;2022-10-17T07:00:12;19.45;;;8.23;;
40701;SDS011;26387;50.114;8.662;2022-10-17T07:02:38;18.50;;;8.30;;
40701;SDS011;26387;50.114;8.662;2022-10-17T07:05:03;23.67;;;7.68;;
40701;SDS011;26387;50.114;8.662;2022-10-17T07:07:30;25.92;;;8.48;;
40701;SDS011;26387;50.114;8.662;2022-10-17T07:09:56;16.27;;;7.78;;
40701;SDS011;26387;50.114;8.662;2022-10-17T07:12:22;18.65;;;8.25;;
40701;SDS011;26387;50.114;8.662;2022-10-17T07:14:48;14.95;;;8.20;;
40701;SDS011;26387;50.114;8.662;2022-10-17T07:17:14;17.20;;;7.88;;
40701;SDS011;26387;50.114;8.662;2022-10-17T07:19:41;17.50;;;7.85;;
40701;SDS011;26387;50.114;8.662;2022-10-17T07:22:07;20.25;;;8.45;;
40701;SDS011;26387;50.114;8.662;2022-10-17T07:24:33;19.25;;;9.15;;
40701;SDS011;26387;50.114;8.662;2022-10-17T07:26:59;20.58;;;8.20;;
40701;SDS011;26387;50.114;8.662;2022-10-17T07:29:25;18.13;;;9.38;;
40701;SDS011;26387;50.114;8.662;2022-10-17T07:31:51;16.80;;;9.35;;
40701;SDS011;26387;50.114;8.662;2022-10-17T07:34:17;16.63;;;9.65;;
40701;SDS011;26387;50.114;8.662;2022-10-17T07:36:42;19.92;;;9.43;;
40701;SDS011;26387;50.114;8.662;2022-10-17T07:39:08;24.80;;;8.25;;
40701;SDS011;26387;50.114;8.662;2022-10-17T07:41:34;17.05;;;8.60;;
40701;SDS011;26387;50.114;8.662;2022-10-17T07:43:59;26.55;;;8.85;;
40701;SDS011;26387;50.114;8.662;2022-10-17T07:46:25;28.55;;;9.32;;
40701;SDS011;26387;50.114;8.662;2022-10-17T07:48:50;19.23;;;8.50;;
40701;SDS011;26387;50.114;8.662;2022-10-17T07:51:16;22.70;;;7.88;;
40701;SDS011;26387;50.114;8.662;2022-10-17T07:53:43;21.25;;;8.45;;
40701;SDS011;26387;50.114;8.662;2022-10-17T07:56:09;17.92;;;8.20;;
40701;SDS011;26387;50.114;8.662;2022-10-17T07:58:36;14.63;;;7.20;;
40701;SDS011;26387;50.114;8.662;2022-10-17T08:01:07;20.95;;;7.97;;
40701;SDS011;26387;50.114;8.662;2022-10-17T08:03:38;16.27;;;8.18;;
40701;SDS011;26387;50.114;8.662;2022-10-17T08:06:04;13.90;;;7.10;;
40701;SDS011;26387;50.114;8.662;2022-10-17T08:08:30;11.32;;;7.03;;
40701;SDS011;26387;50.114;8.662;2022-10-17T08:10:59;18.40;;;6.93;;
40701;SDS011;26387;50.114;8.662;2022-10-17T08:13:27;25.13;;;7.10;;
40701;SDS011;26387;50.114;8.662;2022-10-17T08:15:52;13.65;;;6.47;;
40701;SDS011;26387;50.114;8.662;2022-10-17T08:18:18;16.42;;;6.70;;
40701;SDS011;26387;50.114;8.662;2022-10-17T08:20:43;14.10;;;5.70;;
40701;SDS011;26387;50.114;8.662;2022-10-17T08:23:09;10.82;;;5.97;;
40701;SDS011;26387;50.114;8.662;2022-10-17T08:25:36;11.27;;;5.93;;
40701;SDS011;26387;50.114;8.662;2022-10-17T08:28:03;17.60;;;6.10;;
40701;SDS011;26387;50.114;8.662;2022-10-17T08:30:29;13.80;;;6.22;;
40701;SDS011;26387;50.114;8.662;2022-10-17T08:32:55;9.75;;;6.13;;
40701;SDS011;26387;50.114;8.662;2022-10-17T08:35:21;14.73;;;5.90;;
40701;SDS011;26387;50.114;8.662;2022-10-17T08:37:46;16.85;;;6.13;;
40701;SDS011;26387;50.114;8.662;2022-10-17T08:40:20;14.50;;;5.80;;
40701;SDS011;26387;50.114;8.662;2022-10-17T08:46:04;11.77;;;6.43;;
40701;SDS011;26387;50.114;8.662;2022-10-17T08:48:24;11.27;;;6.20;;
40701;SDS011;26387;50.114;8.662;2022-10-17T08:50:57;21.42;;;6.85;;
40701;SDS011;26387;50.114;8.662;2022-10-17T08:53:31;14.05;;;6.25;;
40701;SDS011;26387;50.114;8.662;2022-10-17T08:56:11;16.85;;;6.43;;
40701;SDS011;26387;50.114;8.662;2022-10-17T08:59:00;11.45;;;6.22;;
40701;SDS011;26387;50.114;8.662;2022-10-17T09:12:24;11.82;;;5.63;;
40701;SDS011;26387;50.114;8.662;2022-10-17T09:15:15;13.18;;;5.80;;
40701;SDS011;26387;50.114;8.662;2022-10-17T09:18:12;13.98;;;5.72;;
40701;SDS011;26387;50.114;8.662;2022-10-17T09:20:43;10.82;;;5.93;;
40701;SDS011;26387;50.114;8.662;2022-10-17T09:23:17;10.48;;;5.47;;
40701;SDS011;26387;50.114;8.662;2022-10-17T09:25:51;13.20;;;5.50;;
40701;SDS011;26387;50.114;8.662;2022-10-17T09:28:21;12.45;;;5.50;;
40701;SDS011;26387;50.114;8.662;2022-10-17T09:30:57;11.95;;;5.65;;
40701;SDS011;26387;50.114;8.662;2022-10-17T09:33:36;9.95;;;5.40;;
40701;SDS011;26387;50.114;8.662;2022-10-17T09:36:07;10.65;;;5.72;;
40701;SDS011;26387;50.114;8.662;2022-10-17T09:38:41;10.80;;;5.20;;
40701;SDS011;26387;50.114;8.662;2022-10-17T09:41:14;10.23;;;5.57;;
40701;SDS011;26387;50.114;8.662;2022-10-17T09:43:42;12.13;;;5.35;;
40701;SDS011;26387;50.114;8.662;2022-10-17T09:48:54;12.80;;;5.60;;
40701;SDS011;26387;50.114;8.662;2022-10-17T09:51:24;13.15;;;5.20;;
40701;SDS011;26387;50.114;8.662;2022-10-17T09:53:51;9.93;;;5.50;;
40701;SDS011;26387;50.114;8.662;2022-10-17T09:56:20;13.98;;;5.35;;
40701;SDS011;26387;50.114;8.662;2022-10-17T09:58:51;13.57;;;5.15;;
40701;SDS011;26387;50.114;8.662;2022-10-17T10:01:23;18.10;;;5.30;;
40701;SDS011;26387;50.114;8.662;2022-10-17T10:06:35;11.50;;;4.35;;
40701;SDS011;26387;50.114;8.662;2022-10-17T10:09:02;9.13;;;4.50;;
40701;SDS011;26387;50.114;8.662;2022-10-17T10:11:49;12.90;;;4.05;;
40701;SDS011;26387;50.114;8.662;2022-10-17T10:14:23;10.40;;;4.30;;
40701;SDS011;26387;50.114;8.662;2022-10-17T10:17:00;13.50;;;4.60;;
40701;SDS011;26387;50.114;8.662;2022-10-17T10:19:37;9.50;;;4.18;;
40701;SDS011;26387;50.114;8.662;2022-10-17T10:22:13;5.90;;;3.90;;
40701;SDS011;26387;50.114;8.662;2022-10-17T10:24:40;11.18;;;4.00;;
40701;SDS011;26387;50.114;8.662;2022-10-17T10:27:09;10.68;;;4.40;;
40701;SDS011;26387;50.114;8.662;2022-10-17T10:29:41;12.90;;;4.40;;
40701;SDS011;26387;50.114;8.662;2022-10-17T10:35:04;6.22;;;3.92;;
40701;SDS011;26387;50.114;8.662;2022-10-17T10:37:36;10.90;;;4.30;;
40701;SDS011;26387;50.114;8.662;2022-10-17T10:40:16;16.00;;;4.05;;
40701;SDS011;26387;50.114;8.662;2022-10-17T10:42:45;9.18;;;3.92;;
40701;SDS011;26387;50.114;8.662;2022-10-17T10:45:16;10.70;;;4.50;;
40701;SDS011;26387;50.114;8.662;2022-10-17T10:47:49;8.50;;;3.92;;
40701;SDS011;26387;50.114;8.662;2022-10-17T10:50:23;10.40;;;4.07;;
40701;SDS011;26387;50.114;8.662;2022-10-17T10:55:33;9.95;;;4.13;;
40701;SDS011;26387;50.114;8.662;2022-10-17T10:58:02;9.90;;;4.78;;
40701;SDS011;26387;50.114;8.662;2022-10-17T11:00:30;9.70;;;4.10;;
40701;SDS011;26387;50.114;8.662;2022-10-17T11:03:11;9.77;;;3.97;;
40701;SDS011;26387;50.114;8.662;2022-10-17T11:08:14;10.93;;;4.20;;
40701;SDS011;26387;50.114;8.662;2022-10-17T11:13:22;16.20;;;4.33;;
40701;SDS011;26387;50.114;8.662;2022-10-17T11:18:23;9.93;;;4.00;;
40701;SDS011;26387;50.114;8.662;2022-10-17T11:20:55;9.88;;;4.57;;
40701;SDS011;26387;50.114;8.662;2022-10-17T11:26:09;15.20;;;4.28;;
40701;SDS011;26387;50.114;8.662;2022-10-17T11:28:36;7.53;;;4.35;;
40701;SDS011;26387;50.114;8.662;2022-10-17T11:31:04;7.65;;;4.43;;
40701;SDS011;26387;50.114;8.662;2022-10-17T11:33:38;9.32;;;3.85;;
40701;SDS011;26387;50.114;8.662;2022-10-17T11:36:07;11.50;;;4.72;;
40701;SDS011;26387;50.114;8.662;2022-10-17T11:41:07;9.63;;;3.47;;
40701;SDS011;26387;50.114;8.662;2022-10-17T11:43:35;11.82;;;4.20;;
40701;SDS011;26387;50.114;8.662;2022-10-17T11:51:19;15.02;;;4.20;;
40701;SDS011;26387;50.114;8.662;2022-10-17T12:01:51;10.02;;;3.78;;
40701;SDS011;26387;50.114;8.662;2022-10-17T12:07:28;10.43;;;3.95;;
40701;SDS011;26387;50.114;8.662;2022-10-17T12:10:21;8.98;;;3.85;;
40701;SDS011;26387;50.114;8.662;2022-10-17T12:12:56;5.95;;;2.92;;
40701;SDS011;26387;50.114;8.662;2022-10-17T12:15:42;10.68;;;3.72;;
40701;SDS011;26387;50.114;8.662;2022-10-17T12:18:10;12.15;;;3.97;;
40701;SDS011;26387;50.114;8.662;2022-10-17T12:20:40;7.70;;;3.70;;
40701;SDS011;26387;50.114;8.662;2022-10-17T12:25:48;10.03;;;3.50;;
40701;SDS011;26387;50.114;8.662;2022-10-17T12:28:15;16.05;;;4.10;;
40701;SDS011;26387;50.114;8.662;2022-10-17T12:35:49;10.35;;;3.10;;
40701;SDS011;26387;50.114;8.662;2022-10-17T12:38:35;12.00;;;3.58;;
40701;SDS011;26387;50.114;8.662;2022-10-17T12:41:02;12.80;;;3.45;;
40701;SDS011;26387;50.114;8.662;2022-10-17T12:46:01;9.50;;;3.35;;
40701;SDS011;26387;50.114;8.662;2022-10-17T12:51:09;10.40;;;3.05;;
40701;SDS011;26387;50.114;8.662;2022-10-17T12:56:09;9.07;;;3.40;;
40701;SDS011;26387;50.114;8.662;2022-10-17T12:58:35;7.40;;;3.05;;
40701;SDS011;26387;50.114;8.662;2022-10-17T13:01:01;8.23;;;3.22;;
40701;SDS011;26387;50.114;8.662;2022-10-17T13:03:29;13.55;;;3.88;;
40701;SDS011;26387;50.114;8.662;2022-10-17T13:05:57;11.23;;;3.40;;
40701;SDS011;26387;50.114;8.662;2022-10-17T13:08:28;10.82;;;3.47;;
40701;SDS011;26387;50.114;8.662;2022-10-17T13:10:55;6.65;;;3.13;;
40701;SDS011;26387;50.114;8.662;2022-10-17T13:13:41;11.13;;;2.70;;
40701;SDS011;26387;50.114;8.662;2022-10-17T13:16:07;7.00;;;3.53;;
40701;SDS011;26387;50.114;8.662;2022-10-17T13:18:34;9.20;;;2.85;;
40701;SDS011;26387;50.114;8.662;2022-10-17T13:21:01;6.30;;;2.85;;
40701;SDS011;26387;50.114;8.662;2022-10-17T13:23:30;6.25;;;2.78;;
40701;SDS011;26387;50.114;8.662;2022-10-17T13:26:06;15.00;;;3.10;;
40701;SDS011;26387;50.114;8.662;2022-10-17T13:28:37;6.03;;;2.88;;
40701;SDS011;26387;50.114;8.662;2022-10-17T13:31:03;11.00;;;3.17;;
40701;SDS011;26387;50.114;8.662;2022-10-17T13:33:34;7.07;;;3.22;;
40701;SDS011;26387;50.114;8.662;2022-10-17T13:36:02;8.48;;;2.78;;
40701;SDS011;26387;50.114;8.662;2022-10-17T13:38:31;7.90;;;2.88;;
40701;SDS011;26387;50.114;8.662;2022-10-17T13:40:58;7.88;;;2.38;;
40701;SDS011;26387;50.114;8.662;2022-10-17T13:43:24;14.80;;;2.60;;
40701;SDS011;26387;50.114;8.662;2022-10-17T13:45:51;5.88;;;2.38;;
40701;SDS011;26387;50.114;8.662;2022-10-17T13:48:22;7.25;;;3.05;;
40701;SDS011;26387;50.114;8.662;2022-10-17T13:50:50;8.95;;;2.60;;
40701;SDS011;26387;50.114;8.662;2022-10-17T13:53:24;6.32;;;2.83;;
40701;SDS011;26387;50.114;8.662;2022-10-17T13:56:01;6.97;;;2.50;;
40701;SDS011;26387;50.114;8.662;2022-10-17T13:59:15;6.20;;;2.67;;
40701;SDS011;26387;50.114;8.662;2022-10-17T14:01:16;8.20;;;2.15;;
40701;SDS011;26387;50.114;8.662;2022-10-17T14:03:43;7.60;;;3.20;;
40701;SDS011;26387;50.114;8.662;2022-10-17T14:08:36;8.65;;;2.60;;
40701;SDS011;26387;50.114;8.662;2022-10-17T14:11:11;7.40;;;2.70;;
40701;SDS011;26387;50.114;8.662;2022-10-17T14:13:37;9.15;;;3.15;;
40701;SDS011;26387;50.114;8.662;2022-10-17T14:16:03;6.90;;;2.90;;
40701;SDS011;26387;50.114;8.662;2022-10-17T14:18:31;9.63;;;3.10;;
40701;SDS011;26387;50.114;8.662;2022-10-17T14:20:58;12.30;;;3.00;;
40701;SDS011;26387;50.114;8.662;2022-10-17T14:23:33;9.13;;;2.90;;
40701;SDS011;26387;50.114;8.662;2022-10-17T14:28:31;6.88;;;2.85;;
40701;SDS011;26387;50.114;8.662;2022-10-17T14:31:11;15.48;;;3.40;;
40701;SDS011;26387;50.114;8.662;2022-10-17T14:33:41;5.47;;;2.70;;
40701;SDS011;26387;50.114;8.662;2022-10-17T14:36:08;6.93;;;3.22;;
40701;SDS011;26387;50.114;8.662;2022-10-17T14:38:34;11.05;;;3.28;;
40701;SDS011;26387;50.114;8.662;2022-10-17T14:41:00;7.63;;;3.03;;
40701;SDS011;26387;50.114;8.662;2022-10-17T14:43:29;12.18;;;3.33;;
40701;SDS011;26387;50.114;8.662;2022-10-17T14:45:57;6.38;;;3.13;;
40701;SDS011;26387;50.114;8.662;2022-10-17T14:48:24;7.68;;;3.00;;
40701;SDS011;26387;50.114;8.662;2022-10-17T14:51:12;6.50;;;3.00;;
40701;SDS011;26387;50.114;8.662;2022-10-17T14:53:39;8.80;;;3.20;;
40701;SDS011;26387;50.114;8.662;2022-10-17T14:56:20;8.70;;;3.05;;
40701;SDS011;26387;50.114;8.662;2022-10-17T14:58:47;9.30;;;3.35;;
40701;SDS011;26387;50.114;8.662;2022-10-17T15:01:13;10.98;;;4.03;;
40701;SDS011;26387;50.114;8.662;2022-10-17T15:03:38;13.75;;;3.60;;
40701;SDS011;26387;50.114;8.662;2022-10-17T15:06:17;8.95;;;3.72;;
40701;SDS011;26387;50.114;8.662;2022-10-17T15:09:12;6.30;;;3.10;;
40701;SDS011;26387;50.114;8.662;2022-10-17T15:11:38;8.55;;;3.00;;
40701;SDS011;26387;50.114;8.662;2022-10-17T15:14:03;6.78;;;3.58;;
40701;SDS011;26387;50.114;8.662;2022-10-17T15:16:29;5.53;;;3.10;;
40701;SDS011;26387;50.114;8.662;2022-10-17T15:18:56;18.15;;;3.83;;
40701;SDS011;26387;50.114;8.662;2022-10-17T15:21:23;10.80;;;3.50;;
40701;SDS011;26387;50.114;8.662;2022-10-17T15:23:49;6.32;;;3.00;;
40701;SDS011;26387;50.114;8.662;2022-10-17T15:26:19;9.70;;;3.05;;
40701;SDS011;26387;50.114;8.662;2022-10-17T15:28:47;10.65;;;3.67;;
40701;SDS011;26387;50.114;8.662;2022-10-17T15:31:14;7.22;;;3.22;;
40701;SDS011;26387;50.114;8.662;2022-10-17T15:33:41;10.00;;;3.50;;
40701;SDS011;26387;50.114;8.662;2022-10-17T15:38:50;12.82;;;3.20;;
40701;SDS011;26387;50.114;8.662;2022-10-17T15:41:18;14.30;;;4.00;;
40701;SDS011;26387;50.114;8.662;2022-10-17T15:43:43;7.95;;;3.58;;
40701;SDS011;26387;50.114;8.662;2022-10-17T15:46:12;14.00;;;3.85;;
40701;SDS011;26387;50.114;8.662;2022-10-17T15:48:40;10.50;;;3.47;;
40701;SDS011;26387;50.114;8.662;2022-10-17T15:51:06;10.15;;;3.38;;
40701;SDS011;26387;50.114;8.662;2022-10-17T15:53:32;7.90;;;3.35;;
40701;SDS011;26387;50.114;8.662;2022-10-17T15:55:58;7.72;;;3.70;;
40701;SDS011;26387;50.114;8.662;2022-10-17T15:58:24;5.63;;;3.95;;
40701;SDS011;26387;50.114;8.662;2022-10-17T16:00:52;8.90;;;4.07;;
40701;SDS011;26387;50.114;8.662;2022-10-17T16:03:18;15.30;;;3.97;;
40701;SDS011;26387;50.114;8.662;2022-10-17T16:05:43;10.90;;;5.13;;
40701;SDS011;26387;50.114;8.662;2022-10-17T16:08:09;10.93;;;4.05;;
40701;SDS011;26387;50.114;8.662;2022-10-17T16:10:35;13.68;;;4.78;;
40701;SDS011;26387;50.114;8.662;2022-10-17T16:13:03;6.72;;;4.72;;
40701;SDS011;26387;50.114;8.662;2022-10-17T16:15:29;10.13;;;4.53;;
40701;SDS011;26387;50.114;8.662;2022-10-17T16:17:55;8.65;;;4.10;;
40701;SDS011;26387;50.114;8.662;2022-10-17T16:20:22;9.07;;;3.75;;
40701;SDS011;26387;50.114;8.662;2022-10-17T16:22:49;7.20;;;4.95;;
40701;SDS011;26387;50.114;8.662;2022-10-17T16:25:20;10.38;;;4.93;;
40701;SDS011;26387;50.114;8.662;2022-10-17T16:27:51;8.15;;;4.18;;
40701;SDS011;26387;50.114;8.662;2022-10-17T16:30:17;15.82;;;4.65;;
40701;SDS011;26387;50.114;8.662;2022-10-17T16:32:44;10.10;;;4.05;;
40701;SDS011;26387;50.114;8.662;2022-10-17T16:35:15;7.95;;;4.60;;
40701;SDS011;26387;50.114;8.662;2022-10-17T16:37:43;11.48;;;4.80;;
40701;SDS011;26387;50.114;8.662;2022-10-17T16:40:09;9.23;;;4.82;;
40701;SDS011;26387;50.114;8.662;2022-10-17T16:42:35;11.30;;;4.95;;